sensor_id;sensor_type;location;lat;lon;timestamp;pressure;altitude;pressure_sealevel;temperature;humidity
12763;BME280;6445;52.490;13.378;2023-03-18T00:00:03;51851.94;;;-146.10;56.31
12763;BME280;6445;52.490;13.378;2023-03-18T00:02:34;51845.94;;;-146.10;56.07
12763;BME280;6445;52.490;13.378;2023-03-18T00:04:59;51847.94;;;-146.10;56.28
12763;BME280;6445;52.490;13.378;2023-03-18T00:07:24;51845.94;;;-146.10;56.62
12763;BME280;6445;52.490;13.378;2023-03-18T00:09:50;51853.94;;;-146.10;56.75
12763;BME280;6445;52.490;13.378;2023-03-18T00:12:16;51847.94;;;-146.10;57.10
12763;BME280;6445;52.490;13.378;2023-03-18T00:14:42;51845.94;;;-146.10;56.89
12763;BME280;6445;52.490;13.378;2023-03-18T00:17:07;51867.94;;;-146.10;57.71
12763;BME280;6445;52.490;13.378;2023-03-18T00:19:34;51871.94;;;-146.10;57.95
12763;BME280;6445;52.490;13.378;2023-03-18T00:21:59;51849.94;;;-146.10;57.60
12763;BME280;6445;52.490;13.378;2023-03-18T00:24:25;51831.94;;;-146.10;57.79
12763;BME280;6445;52.490;13.378;2023-03-18T00:26:52;51871.94;;;-146.10;58.10
12763;BME280;6445;52.490;13.378;2023-03-18T00:29:17;51853.94;;;-146.10;57.91
12763;BME280;6445;52.490;13.378;2023-03-18T00:31:43;51837.94;;;-146.10;57.67
12763;BME280;6445;52.490;13.378;2023-03-18T00:34:08;51833.94;;;-146.10;57.77
12763;BME280;6445;52.490;13.378;2023-03-18T00:36:34;51853.94;;;-146.10;57.86
12763;BME280;6445;52.490;13.378;2023-03-18T00:39:00;51841.94;;;-146.10;57.46
12763;BME280;6445;52.490;13.378;2023-03-18T00:41:28;51839.94;;;-146.10;57.65
12763;BME280;6445;52.490;13.378;2023-03-18T00:43:54;51851.94;;;-146.10;57.63
12763;BME280;6445;52.490;13.378;2023-03-18T00:46:28;51849.94;;;-146.10;57.80
12763;BME280;6445;52.490;13.378;2023-03-18T00:48:57;51849.94;;;-146.10;58.06
12763;BME280;6445;52.490;13.378;2023-03-18T00:51:26;51835.94;;;-146.10;57.97
12763;BME280;6445;52.490;13.378;2023-03-18T00:53:54;51845.94;;;-146.10;58.21
12763;BME280;6445;52.490;13.378;2023-03-18T00:56:21;51841.94;;;-146.10;58.35
12763;BME280;6445;52.490;13.378;2023-03-18T00:58:48;51841.94;;;-146.10;58.46
12763;BME280;6445;52.490;13.378;2023-03-18T01:01:15;51837.94;;;-146.10;58.44
12763;BME280;6445;52.490;13.378;2023-03-18T01:03:42;51839.94;;;-146.10;58.33
12763;BME280;6445;52.490;13.378;2023-03-18T01:06:13;51837.94;;;-146.10;58.59
12763;BME280;6445;52.490;13.378;2023-03-18T01:08:40;51843.94;;;-146.10;58.78
12763;BME280;6445;52.490;13.378;2023-03-18T01:11:07;51831.94;;;-146.10;58.33
12763;BME280;6445;52.490;13.378;2023-03-18T01:13:33;51853.94;;;-146.10;58.27
12763;BME280;6445;52.490;13.378;2023-03-18T01:15:59;51837.94;;;-146.10;58.11
12763;BME280;6445;52.490;13.378;2023-03-18T01:18:25;51829.94;;;-146.10;58.35
12763;BME280;6445;52.490;13.378;2023-03-18T01:20:51;51865.94;;;-146.10;58.60
12763;BME280;6445;52.490;13.378;2023-03-18T01:23:18;51835.94;;;-146.10;58.50
12763;BME280;6445;52.490;13.378;2023-03-18T01:25:43;51859.94;;;-146.10;57.83
12763;BME280;6445;52.490;13.378;2023-03-18T01:28:10;51829.94;;;-146.10;57.93
12763;BME280;6445;52.490;13.378;2023-03-18T01:30:36;51837.94;;;-146.10;57.85
12763;BME280;6445;52.490;13.378;2023-03-18T01:33:03;51855.94;;;-146.10;58.18
12763;BME280;6445;52.490;13.378;2023-03-18T01:35:29;51819.94;;;-146.10;57.56
12763;BME280;6445;52.490;13.378;2023-03-18T01:37:54;51855.94;;;-146.10;57.40
12763;BME280;6445;52.490;13.378;2023-03-18T01:40:20;51849.94;;;-146.10;57.63
12763;BME280;6445;52.490;13.378;2023-03-18T01:42:54;51857.94;;;-146.10;57.39
12763;BME280;6445;52.490;13.378;2023-03-18T01:45:22;51843.94;;;-146.10;58.06
12763;BME280;6445;52.490;13.378;2023-03-18T01:47:49;51841.94;;;-146.10;58.48
12763;BME280;6445;52.490;13.378;2023-03-18T01:50:21;51849.94;;;-146.10;57.49
12763;BME280;6445;52.490;13.378;2023-03-18T01:52:53;51835.94;;;-146.10;57.12
12763;BME280;6445;52.490;13.378;2023-03-18T01:55:21;51843.94;;;-146.10;57.74
12763;BME280;6445;52.490;13.378;2023-03-18T01:57:48;51847.94;;;-146.10;57.58
12763;BME280;6445;52.490;13.378;2023-03-18T02:00:14;51847.94;;;-146.10;57.18
12763;BME280;6445;52.490;13.378;2023-03-18T02:02:43;51833.94;;;-146.10;57.22
12763;BME280;6445;52.490;13.378;2023-03-18T02:05:11;51839.94;;;-146.10;56.74
12763;BME280;6445;52.490;13.378;2023-03-18T02:07:41;51835.94;;;-146.10;57.47
12763;BME280;6445;52.490;13.378;2023-03-18T02:10:20;51835.94;;;-146.10;57.29
12763;BME280;6445;52.490;13.378;2023-03-18T02:12:50;51837.94;;;-146.10;57.49
12763;BME280;6445;52.490;13.378;2023-03-18T02:15:19;51843.94;;;-146.10;56.81
12763;BME280;6445;52.490;13.378;2023-03-18T02:17:51;51857.94;;;-146.10;57.31
12763;BME280;6445;52.490;13.378;2023-03-18T02:22:49;51855.94;;;-146.10;57.12
12763;BME280;6445;52.490;13.378;2023-03-18T02:25:38;51833.94;;;-146.10;56.72
12763;BME280;6445;52.490;13.378;2023-03-18T02:28:09;51841.94;;;-146.10;57.22
12763;BME280;6445;52.490;13.378;2023-03-18T02:30:43;51823.94;;;-146.10;57.48
12763;BME280;6445;52.490;13.378;2023-03-18T02:33:10;51827.94;;;-146.10;58.00
12763;BME280;6445;52.490;13.378;2023-03-18T02:35:38;51861.94;;;-146.10;57.06
12763;BME280;6445;52.490;13.378;2023-03-18T02:38:06;51827.94;;;-146.10;57.72
12763;BME280;6445;52.490;13.378;2023-03-18T02:40:34;51837.94;;;-146.10;58.11
12763;BME280;6445;52.490;13.378;2023-03-18T02:43:35;51831.94;;;-146.10;57.56
12763;BME280;6445;52.490;13.378;2023-03-18T02:46:11;51839.94;;;-146.10;57.36
12763;BME280;6445;52.490;13.378;2023-03-18T02:48:41;51819.94;;;-146.10;57.45
12763;BME280;6445;52.490;13.378;2023-03-18T02:51:07;51835.94;;;-146.10;57.79
12763;BME280;6445;52.490;13.378;2023-03-18T02:53:33;51839.94;;;-146.10;58.26
12763;BME280;6445;52.490;13.378;2023-03-18T02:55:59;51825.94;;;-146.10;58.44
12763;BME280;6445;52.490;13.378;2023-03-18T02:58:25;51841.94;;;-146.10;58.71
12763;BME280;6445;52.490;13.378;2023-03-18T03:00:51;51827.94;;;-146.10;57.89
12763;BME280;6445;52.490;13.378;2023-03-18T03:03:16;51845.94;;;-146.10;57.73
12763;BME280;6445;52.490;13.378;2023-03-18T03:05:42;51851.94;;;-146.10;57.68
12763;BME280;6445;52.490;13.378;2023-03-18T03:08:08;51853.94;;;-146.10;58.02
12763;BME280;6445;52.490;13.378;2023-03-18T03:10:34;51843.94;;;-146.10;58.35
12763;BME280;6445;52.490;13.378;2023-03-18T03:12:59;51859.94;;;-146.10;58.38
12763;BME280;6445;52.490;13.378;2023-03-18T03:15:25;51839.94;;;-146.10;58.83
12763;BME280;6445;52.490;13.378;2023-03-18T03:17:51;51849.94;;;-146.10;58.60
12763;BME280;6445;52.490;13.378;2023-03-18T03:20:17;51837.94;;;-146.10;58.33
12763;BME280;6445;52.490;13.378;2023-03-18T03:22:42;51813.94;;;-146.10;58.45
12763;BME280;6445;52.490;13.378;2023-03-18T03:25:09;51837.94;;;-146.10;58.67
12763;BME280;6445;52.490;13.378;2023-03-18T03:27:34;51839.94;;;-146.10;58.86
12763;BME280;6445;52.490;13.378;2023-03-18T03:30:01;51847.94;;;-146.10;58.85
12763;BME280;6445;52.490;13.378;2023-03-18T03:32:26;51859.94;;;-146.10;59.11
12763;BME280;6445;52.490;13.378;2023-03-18T03:34:51;51843.94;;;-146.10;59.17
12763;BME280;6445;52.490;13.378;2023-03-18T03:37:16;51825.94;;;-146.10;59.07
12763;BME280;6445;52.490;13.378;2023-03-18T03:39:42;51843.94;;;-146.10;59.94
12763;BME280;6445;52.490;13.378;2023-03-18T03:42:08;51837.94;;;-146.10;59.78
12763;BME280;6445;52.490;13.378;2023-03-18T03:44:33;51811.94;;;-146.10;59.41
12763;BME280;6445;52.490;13.378;2023-03-18T03:46:59;51825.94;;;-146.10;60.21
12763;BME280;6445;52.490;13.378;2023-03-18T03:49:24;51831.94;;;-146.10;59.71
12763;BME280;6445;52.490;13.378;2023-03-18T03:51:49;51819.94;;;-146.10;59.71
12763;BME280;6445;52.490;13.378;2023-03-18T03:54:15;51829.94;;;-146.10;59.96
12763;BME280;6445;52.490;13.378;2023-03-18T03:56:41;51843.94;;;-146.10;60.29
12763;BME280;6445;52.490;13.378;2023-03-18T03:59:07;51827.94;;;-146.10;60.63
12763;BME280;6445;52.490;13.378;2023-03-18T04:01:34;51845.94;;;-146.10;61.11
12763;BME280;6445;52.490;13.378;2023-03-18T04:03:59;51845.94;;;-146.10;61.13
12763;BME280;6445;52.490;13.378;2023-03-18T04:06:26;51825.94;;;-146.10;60.93
12763;BME280;6445;52.490;13.378;2023-03-18T04:08:52;51853.94;;;-146.10;60.85
12763;BME280;6445;52.490;13.378;2023-03-18T04:11:17;51819.94;;;-146.10;61.52
12763;BME280;6445;52.490;13.378;2023-03-18T04:13:42;51823.94;;;-146.10;61.11
12763;BME280;6445;52.490;13.378;2023-03-18T04:16:07;51809.94;;;-146.10;60.95
12763;BME280;6445;52.490;13.378;2023-03-18T04:18:33;51827.94;;;-146.10;61.06
12763;BME280;6445;52.490;13.378;2023-03-18T04:20:58;51827.94;;;-146.10;61.05
12763;BME280;6445;52.490;13.378;2023-03-18T04:23:24;51829.94;;;-146.10;61.29
12763;BME280;6445;52.490;13.378;2023-03-18T04:25:50;51843.94;;;-146.10;60.68
12763;BME280;6445;52.490;13.378;2023-03-18T04:28:15;51807.94;;;-146.10;60.85
12763;BME280;6445;52.490;13.378;2023-03-18T04:30:40;51835.94;;;-146.10;61.04
12763;BME280;6445;52.490;13.378;2023-03-18T04:33:05;51831.94;;;-146.10;60.94
12763;BME280;6445;52.490;13.378;2023-03-18T04:35:31;51819.94;;;-146.10;60.91
12763;BME280;6445;52.490;13.378;2023-03-18T04:37:56;51827.94;;;-146.10;61.02
12763;BME280;6445;52.490;13.378;2023-03-18T04:40:22;51833.94;;;-146.10;60.48
12763;BME280;6445;52.490;13.378;2023-03-18T04:42:48;51841.94;;;-146.10;60.79
12763;BME280;6445;52.490;13.378;2023-03-18T04:45:14;51831.94;;;-146.10;60.44
12763;BME280;6445;52.490;13.378;2023-03-18T04:47:41;51825.94;;;-146.10;60.44
12763;BME280;6445;52.490;13.378;2023-03-18T04:50:08;51823.94;;;-146.10;61.03
12763;BME280;6445;52.490;13.378;2023-03-18T04:52:36;51809.94;;;-146.10;61.43
12763;BME280;6445;52.490;13.378;2023-03-18T04:55:02;51835.94;;;-146.10;62.44
12763;BME280;6445;52.490;13.378;2023-03-18T04:57:27;51837.94;;;-146.10;62.21
12763;BME280;6445;52.490;13.378;2023-03-18T04:59:53;51841.94;;;-146.10;61.62
12763;BME280;6445;52.490;13.378;2023-03-18T05:02:18;51849.94;;;-146.10;61.22
12763;BME280;6445;52.490;13.378;2023-03-18T05:04:44;51833.94;;;-146.10;61.81
12763;BME280;6445;52.490;13.378;2023-03-18T05:07:12;51813.94;;;-146.10;61.63
12763;BME280;6445;52.490;13.378;2023-03-18T05:09:39;51815.94;;;-146.10;61.70
12763;BME280;6445;52.490;13.378;2023-03-18T05:12:06;51827.94;;;-146.10;61.17
12763;BME280;6445;52.490;13.378;2023-03-18T05:14:31;51841.94;;;-146.10;61.75
12763;BME280;6445;52.490;13.378;2023-03-18T05:16:56;51827.94;;;-146.10;61.67
12763;BME280;6445;52.490;13.378;2023-03-18T05:19:22;51823.94;;;-146.10;61.17
12763;BME280;6445;52.490;13.378;2023-03-18T05:21:49;51827.94;;;-146.10;60.67
12763;BME280;6445;52.490;13.378;2023-03-18T05:24:14;51841.94;;;-146.10;61.08
12763;BME280;6445;52.490;13.378;2023-03-18T05:26:39;51831.94;;;-146.10;61.31
12763;BME280;6445;52.490;13.378;2023-03-18T05:29:05;51845.94;;;-146.10;60.98
12763;BME280;6445;52.490;13.378;2023-03-18T05:31:30;51829.94;;;-146.10;60.03
12763;BME280;6445;52.490;13.378;2023-03-18T05:33:55;51837.94;;;-146.10;59.98
12763;BME280;6445;52.490;13.378;2023-03-18T05:36:21;51815.94;;;-146.10;60.28
12763;BME280;6445;52.490;13.378;2023-03-18T05:38:47;51841.94;;;-146.10;60.20
12763;BME280;6445;52.490;13.378;2023-03-18T05:41:12;51825.94;;;-146.10;60.67
12763;BME280;6445;52.490;13.378;2023-03-18T05:43:37;51823.94;;;-146.10;60.92
12763;BME280;6445;52.490;13.378;2023-03-18T05:46:03;51843.94;;;-146.10;60.88
12763;BME280;6445;52.490;13.378;2023-03-18T05:48:29;51823.94;;;-146.10;61.06
12763;BME280;6445;52.490;13.378;2023-03-18T05:50:54;51857.94;;;-146.10;60.79
12763;BME280;6445;52.490;13.378;2023-03-18T05:53:19;51839.94;;;-146.10;60.61
12763;BME280;6445;52.490;13.378;2023-03-18T05:55:45;51833.94;;;-146.10;60.18
12763;BME280;6445;52.490;13.378;2023-03-18T05:58:10;51857.94;;;-146.10;60.02
12763;BME280;6445;52.490;13.378;2023-03-18T06:00:37;51843.94;;;-146.10;60.17
12763;BME280;6445;52.490;13.378;2023-03-18T06:03:02;51825.94;;;-146.10;60.21
12763;BME280;6445;52.490;13.378;2023-03-18T06:05:28;51823.94;;;-146.10;60.11
12763;BME280;6445;52.490;13.378;2023-03-18T06:07:54;51831.94;;;-146.10;59.89
12763;BME280;6445;52.490;13.378;2023-03-18T06:10:20;51841.94;;;-146.10;59.52
12763;BME280;6445;52.490;13.378;2023-03-18T06:12:47;51845.94;;;-146.10;59.52
12763;BME280;6445;52.490;13.378;2023-03-18T06:15:13;51839.94;;;-146.10;59.50
12763;BME280;6445;52.490;13.378;2023-03-18T06:17:39;51839.94;;;-146.10;59.35
12763;BME280;6445;52.490;13.378;2023-03-18T06:20:06;51835.94;;;-146.10;59.66
12763;BME280;6445;52.490;13.378;2023-03-18T06:22:33;51855.94;;;-146.10;59.42
12763;BME280;6445;52.490;13.378;2023-03-18T06:24:58;51855.94;;;-146.10;59.04
12763;BME280;6445;52.490;13.378;2023-03-18T06:27:23;51871.94;;;-146.10;59.04
12763;BME280;6445;52.490;13.378;2023-03-18T06:29:49;51855.94;;;-146.10;59.23
12763;BME280;6445;52.490;13.378;2023-03-18T06:32:14;51833.94;;;-146.10;59.56
12763;BME280;6445;52.490;13.378;2023-03-18T06:34:40;51865.94;;;-146.10;59.14
12763;BME280;6445;52.490;13.378;2023-03-18T06:37:05;51849.94;;;-146.10;59.25
12763;BME280;6445;52.490;13.378;2023-03-18T06:39:31;51843.94;;;-146.10;59.31
12763;BME280;6445;52.490;13.378;2023-03-18T06:41:56;51835.94;;;-146.10;59.18
12763;BME280;6445;52.490;13.378;2023-03-18T06:44:22;51851.94;;;-146.10;58.54
12763;BME280;6445;52.490;13.378;2023-03-18T06:46:47;51839.94;;;-146.10;59.10
12763;BME280;6445;52.490;13.378;2023-03-18T06:49:13;51841.94;;;-146.10;59.59
12763;BME280;6445;52.490;13.378;2023-03-18T06:51:39;51859.94;;;-146.10;59.31
12763;BME280;6445;52.490;13.378;2023-03-18T06:54:04;51865.94;;;-146.10;58.92
12763;BME280;6445;52.490;13.378;2023-03-18T06:56:30;51863.94;;;-146.10;58.38
12763;BME280;6445;52.490;13.378;2023-03-18T06:58:58;51843.94;;;-146.10;58.43
12763;BME280;6445;52.490;13.378;2023-03-18T07:01:23;51875.94;;;-146.10;57.61
12763;BME280;6445;52.490;13.378;2023-03-18T07:03:48;51871.94;;;-146.10;57.49
12763;BME280;6445;52.490;13.378;2023-03-18T07:06:13;51861.94;;;-146.10;55.13
12763;BME280;6445;52.490;13.378;2023-03-18T07:08:39;51885.94;;;-146.10;53.10
12763;BME280;6445;52.490;13.378;2023-03-18T07:11:04;51903.94;;;-146.10;52.79
12763;BME280;6445;52.490;13.378;2023-03-18T07:13:31;51891.94;;;-146.10;52.22
12763;BME280;6445;52.490;13.378;2023-03-18T07:15:56;51905.94;;;-146.10;51.56
12763;BME280;6445;52.490;13.378;2023-03-18T07:18:24;51895.94;;;-146.10;50.85
12763;BME280;6445;52.490;13.378;2023-03-18T07:20:49;51899.94;;;-146.10;50.67
12763;BME280;6445;52.490;13.378;2023-03-18T07:23:14;51923.94;;;-146.10;49.96
12763;BME280;6445;52.490;13.378;2023-03-18T07:25:40;51915.94;;;-146.10;47.34
12763;BME280;6445;52.490;13.378;2023-03-18T07:28:06;51931.94;;;-146.10;47.07
12763;BME280;6445;52.490;13.378;2023-03-18T07:30:31;51967.97;;;-146.10;44.79
12763;BME280;6445;52.490;13.378;2023-03-18T07:32:58;51943.97;;;-146.10;44.82
12763;BME280;6445;52.490;13.378;2023-03-18T07:35:23;51941.94;;;-146.10;46.28
12763;BME280;6445;52.490;13.378;2023-03-18T07:37:48;51921.94;;;-146.10;47.07
12763;BME280;6445;52.490;13.378;2023-03-18T07:40:14;51945.97;;;-146.10;44.79
12763;BME280;6445;52.490;13.378;2023-03-18T07:42:39;51957.97;;;-146.10;43.37
12763;BME280;6445;52.490;13.378;2023-03-18T07:45:05;51957.97;;;-146.10;44.32
12763;BME280;6445;52.490;13.378;2023-03-18T07:47:31;51985.97;;;-146.10;42.34
12763;BME280;6445;52.490;13.378;2023-03-18T07:49:57;52015.97;;;-146.10;40.48
12763;BME280;6445;52.490;13.378;2023-03-18T07:52:23;52023.97;;;-146.10;39.38
12763;BME280;6445;52.490;13.378;2023-03-18T07:54:49;52049.97;;;-146.10;38.48
12763;BME280;6445;52.490;13.378;2023-03-18T07:57:14;52061.97;;;-146.10;37.89
12763;BME280;6445;52.490;13.378;2023-03-18T07:59:40;52061.97;;;-146.10;37.60
12763;BME280;6445;52.490;13.378;2023-03-18T08:02:06;52078.00;;;-146.10;37.21
12763;BME280;6445;52.490;13.378;2023-03-18T08:04:33;52074.00;;;-146.10;35.74
12763;BME280;6445;52.490;13.378;2023-03-18T08:06:59;52100.00;;;-146.10;36.41
12763;BME280;6445;52.490;13.378;2023-03-18T08:09:25;52039.97;;;-146.10;37.36
12763;BME280;6445;52.490;13.378;2023-03-18T08:11:52;52049.97;;;-146.10;37.20
12763;BME280;6445;52.490;13.378;2023-03-18T08:14:17;52031.97;;;-146.10;37.48
12763;BME280;6445;52.490;13.378;2023-03-18T08:16:43;52037.97;;;-146.10;37.87
12763;BME280;6445;52.490;13.378;2023-03-18T08:19:08;52092.00;;;-146.10;36.36
12763;BME280;6445;52.490;13.378;2023-03-18T08:21:34;52063.97;;;-146.10;37.04
12763;BME280;6445;52.490;13.378;2023-03-18T08:23:59;52057.97;;;-146.10;37.94
12763;BME280;6445;52.490;13.378;2023-03-18T08:26:25;52074.00;;;-146.10;38.08
12763;BME280;6445;52.490;13.378;2023-03-18T08:28:50;52112.00;;;-146.10;36.54
12763;BME280;6445;52.490;13.378;2023-03-18T08:31:15;52142.00;;;-146.10;35.59
12763;BME280;6445;52.490;13.378;2023-03-18T08:33:41;52132.00;;;-146.10;34.99
12763;BME280;6445;52.490;13.378;2023-03-18T08:36:06;52092.00;;;-146.10;35.80
12763;BME280;6445;52.490;13.378;2023-03-18T08:38:32;52102.00;;;-146.10;36.04
12763;BME280;6445;52.490;13.378;2023-03-18T08:40:58;52198.03;;;-146.10;34.13
12763;BME280;6445;52.490;13.378;2023-03-18T08:43:23;52218.03;;;-146.10;32.15
12763;BME280;6445;52.490;13.378;2023-03-18T08:45:51;52160.00;;;-146.10;33.68
12763;BME280;6445;52.490;13.378;2023-03-18T08:48:17;52148.00;;;-146.10;33.90
12763;BME280;6445;52.490;13.378;2023-03-18T08:50:42;52168.00;;;-146.10;34.03
12763;BME280;6445;52.490;13.378;2023-03-18T08:53:08;52140.00;;;-146.10;35.52
12763;BME280;6445;52.490;13.378;2023-03-18T08:55:35;52084.00;;;-146.10;36.65
12763;BME280;6445;52.490;13.378;2023-03-18T08:58:05;52104.00;;;-146.10;36.28
12763;BME280;6445;52.490;13.378;2023-03-18T09:00:33;52092.00;;;-146.10;36.76
12763;BME280;6445;52.490;13.378;2023-03-18T09:02:58;52063.97;;;-146.10;38.38
12763;BME280;6445;52.490;13.378;2023-03-18T09:05:24;52065.97;;;-146.10;38.24
12763;BME280;6445;52.490;13.378;2023-03-18T09:07:50;52072.00;;;-146.10;38.19
12763;BME280;6445;52.490;13.378;2023-03-18T09:10:17;52070.00;;;-146.10;37.90
12763;BME280;6445;52.490;13.378;2023-03-18T09:12:44;52092.00;;;-146.10;38.08
12763;BME280;6445;52.490;13.378;2023-03-18T09:15:12;52078.00;;;-146.10;37.87
12763;BME280;6445;52.490;13.378;2023-03-18T09:17:39;52104.00;;;-146.10;37.70
12763;BME280;6445;52.490;13.378;2023-03-18T09:20:06;52088.00;;;-146.10;38.04
12763;BME280;6445;52.490;13.378;2023-03-18T09:22:32;52222.03;;;-146.10;35.56
12763;BME280;6445;52.490;13.378;2023-03-18T09:24:57;52258.03;;;-146.10;33.55
12763;BME280;6445;52.490;13.378;2023-03-18T09:27:23;52324.06;;;-146.10;31.58
12763;BME280;6445;52.490;13.378;2023-03-18T09:29:48;52308.06;;;-146.10;31.29
12763;BME280;6445;52.490;13.378;2023-03-18T09:32:14;52294.06;;;-146.10;31.94
12763;BME280;6445;52.490;13.378;2023-03-18T09:34:40;52290.06;;;-146.10;32.13
12763;BME280;6445;52.490;13.378;2023-03-18T09:37:05;52314.06;;;-146.10;30.97
12763;BME280;6445;52.490;13.378;2023-03-18T09:39:31;52220.03;;;-146.10;33.30
12763;BME280;6445;52.490;13.378;2023-03-18T09:42:08;52268.03;;;-146.10;33.04
12763;BME280;6445;52.490;13.378;2023-03-18T09:44:40;52338.06;;;-146.10;31.08
12763;BME280;6445;52.490;13.378;2023-03-18T09:52:28;52342.06;;;-146.10;30.12
12763;BME280;6445;52.490;13.378;2023-03-18T09:55:15;52500.13;;;-146.10;28.78
12763;BME280;6445;52.490;13.378;2023-03-18T09:57:45;52534.13;;;-146.10;28.15
12763;BME280;6445;52.490;13.378;2023-03-18T10:00:17;52500.13;;;-146.10;28.64
12763;BME280;6445;52.490;13.378;2023-03-18T10:02:52;52460.09;;;-146.10;28.69
12763;BME280;6445;52.490;13.378;2023-03-18T10:08:00;52634.19;;;-146.10;27.61
12763;BME280;6445;52.490;13.378;2023-03-18T10:10:33;52706.22;;;-146.10;26.21
12763;BME280;6445;52.490;13.378;2023-03-18T10:13:06;52460.09;;;-146.10;27.90
12763;BME280;6445;52.490;13.378;2023-03-18T10:15:40;52620.16;;;-146.10;27.61
12763;BME280;6445;52.490;13.378;2023-03-18T10:18:20;52590.16;;;-146.10;27.18
12763;BME280;6445;52.490;13.378;2023-03-18T10:20:58;52602.16;;;-146.10;26.86
12763;BME280;6445;52.490;13.378;2023-03-18T10:23:36;52522.13;;;-146.10;27.78
12763;BME280;6445;52.490;13.378;2023-03-18T10:26:20;52608.16;;;-146.10;27.41
12763;BME280;6445;52.490;13.378;2023-03-18T10:29:06;52550.16;;;-146.10;27.89
12763;BME280;6445;52.490;13.378;2023-03-18T10:31:46;52578.16;;;-146.10;28.04
12763;BME280;6445;52.490;13.378;2023-03-18T10:34:20;52470.13;;;-146.10;29.07
12763;BME280;6445;52.490;13.378;2023-03-18T10:39:31;52508.13;;;-146.10;28.42
12763;BME280;6445;52.490;13.378;2023-03-18T10:42:00;52538.13;;;-146.10;28.08
12763;BME280;6445;52.490;13.378;2023-03-18T10:44:37;52502.13;;;-146.10;28.57
12763;BME280;6445;52.490;13.378;2023-03-18T10:47:10;52510.13;;;-146.10;28.68
12763;BME280;6445;52.490;13.378;2023-03-18T10:49:41;52396.09;;;-146.10;29.75
12763;BME280;6445;52.490;13.378;2023-03-18T10:52:28;52514.13;;;-146.10;28.69
12763;BME280;6445;52.490;13.378;2023-03-18T10:54:57;52430.09;;;-146.10;29.69
12763;BME280;6445;52.490;13.378;2023-03-18T10:57:23;52320.06;;;-146.10;31.36
12763;BME280;6445;52.490;13.378;2023-03-18T10:59:49;52292.06;;;-146.10;32.54
12763;BME280;6445;52.490;13.378;2023-03-18T11:02:24;52190.03;;;-146.10;35.10
12763;BME280;6445;52.490;13.378;2023-03-18T11:04:58;52206.03;;;-146.10;35.48
12763;BME280;6445;52.490;13.378;2023-03-18T11:07:26;52236.03;;;-146.10;34.99
12763;BME280;6445;52.490;13.378;2023-03-18T11:09:53;52292.06;;;-146.10;33.18
12763;BME280;6445;52.490;13.378;2023-03-18T11:12:28;52222.03;;;-146.10;34.63
12763;BME280;6445;52.490;13.378;2023-03-18T11:14:56;52210.03;;;-146.10;35.05
12763;BME280;6445;52.490;13.378;2023-03-18T11:20:21;52212.03;;;-146.10;35.52
12763;BME280;6445;52.490;13.378;2023-03-18T11:22:50;52210.03;;;-146.10;36.29
12763;BME280;6445;52.490;13.378;2023-03-18T11:25:19;52250.03;;;-146.10;35.17
12763;BME280;6445;52.490;13.378;2023-03-18T11:27:47;52254.03;;;-146.10;35.46
12763;BME280;6445;52.490;13.378;2023-03-18T11:30:18;52238.03;;;-146.10;35.52
12763;BME280;6445;52.490;13.378;2023-03-18T11:32:56;52252.03;;;-146.10;36.46
12763;BME280;6445;52.490;13.378;2023-03-18T11:35:55;52218.03;;;-146.10;37.44
12763;BME280;6445;52.490;13.378;2023-03-18T11:38:29;52230.03;;;-146.10;37.14
12763;BME280;6445;52.490;13.378;2023-03-18T11:41:21;52164.00;;;-146.10;38.38
12763;BME280;6445;52.490;13.378;2023-03-18T11:44:07;52150.00;;;-146.10;39.31
12763;BME280;6445;52.490;13.378;2023-03-18T11:46:46;52138.00;;;-146.10;40.10
12763;BME280;6445;52.490;13.378;2023-03-18T11:49:16;52144.00;;;-146.10;40.73
12763;BME280;6445;52.490;13.378;2023-03-18T11:51:53;52158.00;;;-146.10;40.82
12763;BME280;6445;52.490;13.378;2023-03-18T11:54:55;52196.03;;;-146.10;40.65
12763;BME280;6445;52.490;13.378;2023-03-18T12:00:37;52222.03;;;-146.10;39.50
12763;BME280;6445;52.490;13.378;2023-03-18T12:03:31;52252.03;;;-146.10;39.27
12763;BME280;6445;52.490;13.378;2023-03-18T12:06:14;52260.03;;;-146.10;38.79
12763;BME280;6445;52.490;13.378;2023-03-18T12:08:57;52274.03;;;-146.10;39.28
12763;BME280;6445;52.490;13.378;2023-03-18T12:17:02;52356.06;;;-146.10;36.38
12763;BME280;6445;52.490;13.378;2023-03-18T12:25:06;52392.09;;;-146.10;34.74
12763;BME280;6445;52.490;13.378;2023-03-18T12:28:01;52302.06;;;-146.10;36.57
12763;BME280;6445;52.490;13.378;2023-03-18T12:30:48;52352.06;;;-146.10;36.21
12763;BME280;6445;52.490;13.378;2023-03-18T12:33:38;52312.06;;;-146.10;36.47
12763;BME280;6445;52.490;13.378;2023-03-18T12:39:20;52262.03;;;-146.10;39.56
12763;BME280;6445;52.490;13.378;2023-03-18T12:41:58;52264.03;;;-146.10;39.53
12763;BME280;6445;52.490;13.378;2023-03-18T12:44:32;52266.03;;;-146.10;39.34
12763;BME280;6445;52.490;13.378;2023-03-18T12:49:59;52304.06;;;-146.10;38.82
12763;BME280;6445;52.490;13.378;2023-03-18T12:52:39;52296.06;;;-146.10;38.68
12763;BME280;6445;52.490;13.378;2023-03-18T12:55:13;52324.06;;;-146.10;38.82
12763;BME280;6445;52.490;13.378;2023-03-18T12:57:47;52402.09;;;-146.10;36.76
12763;BME280;6445;52.490;13.378;2023-03-18T13:00:18;52404.09;;;-146.10;36.30
12763;BME280;6445;52.490;13.378;2023-03-18T13:02:55;52360.06;;;-146.10;37.32
12763;BME280;6445;52.490;13.378;2023-03-18T13:05:33;52396.09;;;-146.10;36.43
12763;BME280;6445;52.490;13.378;2023-03-18T13:08:11;52296.06;;;-146.10;38.12
12763;BME280;6445;52.490;13.378;2023-03-18T13:10:46;52412.09;;;-146.10;36.58
12763;BME280;6445;52.490;13.378;2023-03-18T13:13:14;52362.06;;;-146.10;36.91
12763;BME280;6445;52.490;13.378;2023-03-18T13:15:45;52368.06;;;-146.10;37.38
12763;BME280;6445;52.490;13.378;2023-03-18T13:18:34;52370.06;;;-146.10;37.72
12763;BME280;6445;52.490;13.378;2023-03-18T13:21:03;52392.09;;;-146.10;36.89
12763;BME280;6445;52.490;13.378;2023-03-18T13:26:27;52400.09;;;-146.10;36.55